Hauptseite
METAR-TAF:

METAR-TAF

Flughäfen :

Toulon, Frankreich

Flughafen Toulon-Hyères

Breite: 43-06N, Länge: 006-09E, Höhe: 3 m

Beobachtung

Neuester Wetterbericht von vor 15 Minuten, um 23:00 UTC
Windstille
Temperatur 13°C
Luftfeuchtigkeit 82%
Luftdruck 1018 hPa
Sichtweite 10 km oder mehr
keine Wolken unter 1500 m und keine Kumulonimbus oder Gewitterwolken

METAR: LFTH 212300Z AUTO 00000KT CAVOK 13/10 Q1018 NOSIG

Zeit: 01:15 (23:15 UTC)

Prognose

Neuester Wetterbericht von vor 3 Stunden und 15 Minuten, um 20:00 UTC
Gültige Prognose vom 21 um 21 UTC bis 22 um 21 UTC
Wind 2 kt aus unterschiedlichen Richtungen
Sichtweite 10 km oder mehr
keine Wolken unter 1500 m und keine Kumulonimbus oder Gewitterwolken
Übergehend zu
vom 22 um 09 UTC bis 22 um 11 UTC
Wind 12 kt aus Südwest

TAF: LFTH 212000Z 2121/2221 VRB02KT CAVOK BECMG 2209/2211 22012KT

Wetterbeobachtungen und Prognosen von mehr als 4000 Flughäfen (METAR und TAF Bericht).

Die verfügbaren Stationen werden durch gelbe und rote Markierungen auf der Karte dargestellt.

Führen Sie die Maus auf sie, um den Namen der Station zu sehen.

Darauf klicken, um die Beobachtung von Wetterbeobachtungen und Prognosen zu sehen.

Um die Karte zu ändern : klicken Sie auf den grünen Tasten mit einem schwarzen Kreuz Zum Vergrößern, auf den grünen Button mit einem Gedankenstrich zu verkleinern, oder auf die grünen Pfeile für benachbarte Karten.


METAR-TAF: